Time,TemperatureF,DewpointF,PressureIn,WindDirection,WindDirectionDegrees,WindSpeedMPH,WindSpeedGustMPH,Humidity,HourlyPrecipIn,Conditions,Clouds,dailyrainin,SoftwareType,DateUTC
2013-02-26 00:12:00,26.2,22.9,30.06,SSW,202,1.1,-999.0,87,-99.99,,,0.00,Acu-Link.com,2013-02-26 05:12:00,
2013-02-26 00:27:00,26.1,22.8,30.06,NE,45,0.0,-999.0,87,-99.99,,,0.00,Acu-Link.com,2013-02-26 05:27:00,
2013-02-26 00:42:00,25.9,22.8,30.07,NE,45,0.0,-999.0,88,-99.99,,,0.00,Acu-Link.com,2013-02-26 05:42:00,
2013-02-26 00:57:00,25.7,22.9,30.06,ESE,112,1.7,-999.0,89,-99.99,,,0.00,Acu-Link.com,2013-02-26 05:57:00,
2013-02-26 01:12:00,25.5,22.7,30.06,ESE,112,0.0,-999.0,89,-99.99,,,0.00,Acu-Link.com,2013-02-26 06:12:00,
2013-02-26 01:28:00,25.3,22.5,30.06,East,90,1.7,-999.0,89,-99.99,,,0.00,Acu-Link.com,2013-02-26 06:28:00,
2013-02-26 01:43:00,25.3,22.8,30.05,South,180,2.7,-999.0,90,-99.99,,,0.00,Acu-Link.com,2013-02-26 06:43:00,
2013-02-26 01:58:00,25.3,22.8,30.04,NE,45,1.7,-999.0,90,-99.99,,,0.00,Acu-Link.com,2013-02-26 06:58:00,
2013-02-26 02:13:00,25.5,23.0,30.04,NE,45,1.7,-999.0,90,-99.99,,,0.00,Acu-Link.com,2013-02-26 07:13:00,
2013-02-26 02:28:00,25.5,22.7,30.04,East,90,0.0,-999.0,89,-99.99,,,0.00,Acu-Link.com,2013-02-26 07:28:00,
2013-02-26 02:43:00,25.3,22.5,30.05,East,90,2.2,-999.0,89,-99.99,,,0.00,Acu-Link.com,2013-02-26 07:43:00,
2013-02-26 02:58:00,25.2,22.4,30.05,ESE,112,1.7,-999.0,89,-99.99,,,0.00,Acu-Link.com,2013-02-26 07:58:00,
2013-02-26 03:13:00,25.2,22.4,30.04,East,90,0.0,-999.0,89,-99.99,,,0.00,Acu-Link.com,2013-02-26 08:13:00,
2013-02-26 03:28:00,25.0,22.0,30.03,ESE,112,1.7,-999.0,88,-99.99,,,0.00,Acu-Link.com,2013-02-26 08:28:00,
2013-02-26 03:44:00,25.0,22.0,30.03,ESE,112,2.7,-999.0,88,-99.99,,,0.00,Acu-Link.com,2013-02-26 08:44:00,
2013-02-26 07:04:00,27.9,22.2,29.93,ENE,67,4.2,-999.0,79,-99.99,,,0.00,Acu-Link.com,2013-02-26 12:04:00,
2013-02-26 07:19:00,28.0,22.3,29.94,East,90,3.7,-999.0,79,-99.99,,,0.00,Acu-Link.com,2013-02-26 12:19:00,
2013-02-26 07:34:00,28.0,22.3,29.95,East,90,1.1,-999.0,79,-99.99,,,0.00,Acu-Link.com,2013-02-26 12:34:00,
2013-02-26 07:49:00,28.2,22.5,29.94,East,90,5.8,-999.0,79,-99.99,,,0.00,Acu-Link.com,2013-02-26 12:49:00,
2013-02-26 08:04:00,28.6,22.9,29.94,East,90,5.3,-999.0,79,-99.99,,,0.00,Acu-Link.com,2013-02-26 13:04:00,
2013-02-26 08:20:00,28.9,23.2,29.95,East,90,7.3,-999.0,79,-99.99,,,0.00,Acu-Link.com,2013-02-26 13:20:00,
2013-02-26 08:35:00,29.1,23.4,29.93,ENE,67,4.2,-999.0,79,-99.99,,,0.00,Acu-Link.com,2013-02-26 13:35:00,
2013-02-26 08:50:00,29.7,23.7,29.93,East,90,4.2,-999.0,78,-99.99,,,0.00,Acu-Link.com,2013-02-26 13:50:00,
2013-02-26 09:05:00,29.8,23.5,29.92,East,90,6.8,-999.0,77,-99.99,,,0.00,Acu-Link.com,2013-02-26 14:05:00,
2013-02-26 09:20:00,30.6,24.0,29.90,East,90,4.7,-999.0,76,-99.99,,,0.00,Acu-Link.com,2013-02-26 14:20:00,
2013-02-26 09:35:00,31.1,24.1,29.91,East,90,4.7,-999.0,75,-99.99,,,0.00,Acu-Link.com,2013-02-26 14:35:00,
2013-02-26 09:50:00,31.5,23.9,29.88,East,90,5.8,-999.0,73,-99.99,,,0.00,Acu-Link.com,2013-02-26 14:50:00,
2013-02-26 10:05:00,31.6,24.0,29.88,ESE,112,3.2,-999.0,73,-99.99,,,0.00,Acu-Link.com,2013-02-26 15:05:00,
2013-02-26 10:20:00,31.8,24.2,29.86,ESE,112,4.2,-999.0,73,-99.99,,,0.00,Acu-Link.com,2013-02-26 15:20:00,
2013-02-26 10:36:00,31.8,24.5,29.83,East,90,5.8,-999.0,74,-99.99,,,0.00,Acu-Link.com,2013-02-26 15:36:00,
2013-02-26 10:51:00,32.2,24.9,29.82,East,90,5.3,-999.0,74,-99.99,,,0.01,Acu-Link.com,2013-02-26 15:51:00,
2013-02-26 11:06:00,32.5,24.8,29.81,East,90,11.4,-999.0,73,-99.99,,,0.01,Acu-Link.com,2013-02-26 16:06:00,
2013-02-26 11:21:00,33.1,25.1,29.81,SSE,157,4.7,-999.0,72,-99.99,,,0.01,Acu-Link.com,2013-02-26 16:21:00,
2013-02-26 11:36:00,34.0,25.9,29.80,East,90,4.2,-999.0,72,-99.99,,,0.01,Acu-Link.com,2013-02-26 16:36:00,
2013-02-26 11:51:00,33.6,25.6,29.79,NE,45,6.8,-999.0,72,-99.99,,,0.01,Acu-Link.com,2013-02-26 16:51:00,
2013-02-26 12:06:00,34.0,25.9,29.79,ESE,112,8.3,-999.0,72,-99.99,,,0.01,Acu-Link.com,2013-02-26 17:06:00,
2013-02-26 12:22:00,34.2,26.1,29.78,NE,45,4.7,-999.0,72,-99.99,,,0.01,Acu-Link.com,2013-02-26 17:22:00,
2013-02-26 12:37:00,34.9,26.5,29.76,ESE,112,4.2,-999.0,71,-99.99,,,0.01,Acu-Link.com,2013-02-26 17:37:00,
2013-02-26 12:52:00,35.2,26.4,29.76,East,90,3.2,-999.0,70,-99.99,,,0.01,Acu-Link.com,2013-02-26 17:52:00,
2013-02-26 13:07:00,29.0,20.5,29.74,East,90,11.9,-999.0,70,-99.99,,,0.01,Acu-Link.com,2013-02-26 18:07:00,
2013-02-26 13:22:00,35.6,26.8,29.72,ESE,112,7.8,-999.0,70,-99.99,,,0.01,Acu-Link.com,2013-02-26 18:22:00,
2013-02-26 13:37:00,36.1,26.9,29.71,ENE,67,5.8,-999.0,69,-99.99,,,0.01,Acu-Link.com,2013-02-26 18:37:00,
2013-02-26 13:52:00,36.3,27.5,29.70,ENE,67,7.8,-999.0,70,-99.99,,,0.01,Acu-Link.com,2013-02-26 18:52:00,
2013-02-26 14:07:00,36.3,27.5,29.69,East,90,6.8,-999.0,70,-99.99,,,0.01,Acu-Link.com,2013-02-26 19:07:00,
2013-02-26 14:23:00,36.0,27.9,29.67,NE,45,3.7,-999.0,72,-99.99,,,0.01,Acu-Link.com,2013-02-26 19:23:00,
2013-02-26 14:38:00,35.6,27.8,29.66,ESE,112,7.8,-999.0,73,-99.99,,,0.01,Acu-Link.com,2013-02-26 19:38:00,
2013-02-26 14:53:00,35.2,28.1,29.65,ESE,112,6.3,-999.0,75,-99.99,,,0.01,Acu-Link.com,2013-02-26 19:53:00,
2013-02-26 15:08:00,35.1,28.9,29.64,East,90,7.8,-999.0,78,-99.99,,,0.01,Acu-Link.com,2013-02-26 20:08:00,
2013-02-26 15:23:00,34.7,29.5,29.64,ENE,67,8.3,-999.0,81,-99.99,,,0.01,Acu-Link.com,2013-02-26 20:23:00,
2013-02-26 15:38:00,34.5,29.3,29.63,ENE,67,6.3,-999.0,81,-99.99,,,0.01,Acu-Link.com,2013-02-26 20:38:00,
2013-02-26 15:53:00,34.3,29.7,29.63,ESE,112,5.8,-999.0,83,-99.99,,,0.01,Acu-Link.com,2013-02-26 20:53:00,
2013-02-26 16:08:00,34.0,30.0,29.62,ENE,67,6.3,-999.0,85,-99.99,,,0.01,Acu-Link.com,2013-02-26 21:08:00,
2013-02-26 16:23:00,33.8,30.3,29.62,North,0,3.2,-999.0,87,-99.99,,,0.01,Acu-Link.com,2013-02-26 21:23:00,
2013-02-26 16:39:00,35.2,31.2,29.63,East,90,4.7,-999.0,85,-99.99,,,0.01,Acu-Link.com,2013-02-26 21:39:00,
2013-02-26 16:54:00,34.0,30.5,29.63,NNW,337,4.2,-999.0,87,-99.99,,,0.01,Acu-Link.com,2013-02-26 21:54:00,
2013-02-26 17:09:00,33.8,30.9,29.62,NNE,22,7.3,-999.0,89,-99.99,,,0.01,Acu-Link.com,2013-02-26 22:09:00,
2013-02-26 17:24:00,33.4,31.1,29.62,ESE,112,6.3,-999.0,91,-99.99,,,0.01,Acu-Link.com,2013-02-26 22:24:00,
2013-02-26 17:39:00,32.9,31.4,29.63,ESE,112,6.8,-999.0,94,-99.99,,,0.01,Acu-Link.com,2013-02-26 22:39:00,
2013-02-26 17:54:00,32.5,32.0,29.61,ESE,112,5.3,-999.0,98,-99.99,,,0.01,Acu-Link.com,2013-02-26 22:54:00,
2013-02-26 18:09:00,32.2,32.0,29.59,ESE,112,6.8,-999.0,99,-99.99,,,0.01,Acu-Link.com,2013-02-26 23:09:00,
2013-02-26 18:24:00,32.2,32.0,29.59,NE,45,4.7,-999.0,99,-99.99,,,0.01,Acu-Link.com,2013-02-26 23:24:00,
2013-02-26 18:39:00,32.4,32.2,29.59,East,90,7.8,-999.0,99,-99.99,,,0.01,Acu-Link.com,2013-02-26 23:39:00,
2013-02-26 18:55:00,32.4,32.2,29.59,ENE,67,7.8,-999.0,99,-99.99,,,0.01,Acu-Link.com,2013-02-26 23:55:00,
2013-02-26 19:10:00,32.5,32.3,29.58,ESE,112,4.2,-999.0,99,-99.99,,,0.01,Acu-Link.com,2013-02-27 00:10:00,
2013-02-26 19:25:00,32.7,32.5,29.58,ESE,112,5.3,-999.0,99,-99.99,,,0.01,Acu-Link.com,2013-02-27 00:25:00,
2013-02-26 19:40:00,32.7,32.5,29.56,East,90,5.3,-999.0,99,-99.99,,,0.01,Acu-Link.com,2013-02-27 00:40:00,
2013-02-26 19:55:00,32.9,32.7,29.57,ENE,67,6.3,-999.0,99,-99.99,,,0.01,Acu-Link.com,2013-02-27 00:55:00,
2013-02-26 20:10:00,32.9,32.7,29.55,ENE,67,7.3,-999.0,99,-99.99,,,0.01,Acu-Link.com,2013-02-27 01:10:00,
2013-02-26 20:25:00,32.9,32.7,29.54,ESE,112,5.8,-999.0,99,-99.99,,,0.01,Acu-Link.com,2013-02-27 01:25:00,
2013-02-26 20:40:00,32.9,32.7,29.55,East,90,6.3,-999.0,99,-99.99,,,0.01,Acu-Link.com,2013-02-27 01:40:00,
2013-02-26 20:55:00,32.9,32.7,29.55,ESE,112,7.3,-999.0,99,-99.99,,,0.01,Acu-Link.com,2013-02-27 01:55:00,
2013-02-26 21:11:00,32.9,32.7,29.53,East,90,5.3,-999.0,99,-99.99,,,0.01,Acu-Link.com,2013-02-27 02:11:00,
2013-02-26 21:41:00,32.9,32.7,29.52,East,90,7.3,-999.0,99,-99.99,,,0.02,Acu-Link.com,2013-02-27 02:41:00,
2013-02-26 21:56:00,32.7,32.5,29.52,East,90,3.2,-999.0,99,-99.99,,,0.02,Acu-Link.com,2013-02-27 02:56:00,
2013-02-26 22:11:00,32.5,32.3,29.51,ESE,112,7.3,-999.0,99,-99.99,,,0.02,Acu-Link.com,2013-02-27 03:11:00,
2013-02-26 22:26:00,32.5,32.3,29.50,ESE,112,2.7,-999.0,99,-99.99,,,0.02,Acu-Link.com,2013-02-27 03:26:00,
2013-02-26 22:42:00,32.5,32.3,29.50,East,90,3.2,-999.0,99,-99.99,,,0.02,Acu-Link.com,2013-02-27 03:42:00,
2013-02-26 22:57:00,32.5,32.3,29.49,ENE,67,6.3,-999.0,99,-99.99,,,0.02,Acu-Link.com,2013-02-27 03:57:00,
2013-02-26 23:12:00,32.5,32.3,29.48,NE,45,2.7,-999.0,99,-99.99,,,0.02,Acu-Link.com,2013-02-27 04:12:00,
2013-02-26 23:27:00,32.5,32.3,29.47,ENE,67,3.2,-999.0,99,-99.99,,,0.02,Acu-Link.com,2013-02-27 04:27:00,
2013-02-26 23:42:00,32.5,32.3,29.47,ENE,67,2.2,-999.0,99,-99.99,,,0.02,Acu-Link.com,2013-02-27 04:42:00,
2013-02-26 23:57:00,32.5,32.3,29.47,East,90,7.3,-999.0,99,-99.99,,,0.02,Acu-Link.com,2013-02-27 04:57:00,